sensor_id;sensor_type;location;lat;lon;timestamp;P1;durP1;ratioP1;P2;durP2;ratioP2
22388;SDS011;11362;48.102;11.620;2023-06-14T00:00:42;3.33;;;2.60;;
22388;SDS011;11362;48.102;11.620;2023-06-14T00:03:08;4.33;;;2.57;;
22388;SDS011;11362;48.102;11.620;2023-06-14T00:05:33;3.33;;;2.70;;
22388;SDS011;11362;48.102;11.620;2023-06-14T00:07:59;3.00;;;2.80;;
22388;SDS011;11362;48.102;11.620;2023-06-14T00:10:24;3.40;;;2.97;;
22388;SDS011;11362;48.102;11.620;2023-06-14T00:12:50;3.43;;;3.17;;
22388;SDS011;11362;48.102;11.620;2023-06-14T00:15:15;3.17;;;2.97;;
22388;SDS011;11362;48.102;11.620;2023-06-14T00:17:41;4.60;;;3.50;;
22388;SDS011;11362;48.102;11.620;2023-06-14T00:20:06;3.07;;;2.77;;
22388;SDS011;11362;48.102;11.620;2023-06-14T00:22:32;3.33;;;2.97;;
22388;SDS011;11362;48.102;11.620;2023-06-14T00:24:57;2.83;;;2.63;;
22388;SDS011;11362;48.102;11.620;2023-06-14T00:27:22;2.93;;;2.73;;
22388;SDS011;11362;48.102;11.620;2023-06-14T00:29:47;2.80;;;2.60;;
22388;SDS011;11362;48.102;11.620;2023-06-14T00:32:13;2.90;;;2.70;;
22388;SDS011;11362;48.102;11.620;2023-06-14T00:34:38;3.33;;;2.77;;
22388;SDS011;11362;48.102;11.620;2023-06-14T00:37:03;2.83;;;2.63;;
22388;SDS011;11362;48.102;11.620;2023-06-14T00:39:29;3.70;;;3.30;;
22388;SDS011;11362;48.102;11.620;2023-06-14T00:41:54;3.47;;;3.17;;
22388;SDS011;11362;48.102;11.620;2023-06-14T00:44:19;3.80;;;2.90;;
22388;SDS011;11362;48.102;11.620;2023-06-14T00:46:45;3.03;;;2.77;;
22388;SDS011;11362;48.102;11.620;2023-06-14T00:49:11;3.13;;;2.93;;
22388;SDS011;11362;48.102;11.620;2023-06-14T00:51:38;4.87;;;3.00;;
22388;SDS011;11362;48.102;11.620;2023-06-14T00:54:03;2.80;;;2.60;;
22388;SDS011;11362;48.102;11.620;2023-06-14T00:56:29;4.43;;;2.70;;
22388;SDS011;11362;48.102;11.620;2023-06-14T00:58:55;2.70;;;2.50;;
22388;SDS011;11362;48.102;11.620;2023-06-14T01:01:21;4.23;;;3.20;;
22388;SDS011;11362;48.102;11.620;2023-06-14T01:03:46;3.23;;;2.83;;
22388;SDS011;11362;48.102;11.620;2023-06-14T01:06:28;3.27;;;3.07;;
22388;SDS011;11362;48.102;11.620;2023-06-14T01:09:33;3.00;;;2.80;;
22388;SDS011;11362;48.102;11.620;2023-06-14T01:14:34;3.10;;;2.90;;
22388;SDS011;11362;48.102;11.620;2023-06-14T01:17:01;4.70;;;3.40;;
22388;SDS011;11362;48.102;11.620;2023-06-14T01:19:27;3.93;;;2.80;;
22388;SDS011;11362;48.102;11.620;2023-06-14T01:21:52;3.20;;;3.00;;
22388;SDS011;11362;48.102;11.620;2023-06-14T01:24:17;4.07;;;2.90;;
22388;SDS011;11362;48.102;11.620;2023-06-14T01:26:43;3.70;;;3.40;;
22388;SDS011;11362;48.102;11.620;2023-06-14T01:29:08;3.40;;;3.17;;
22388;SDS011;11362;48.102;11.620;2023-06-14T01:31:34;2.90;;;2.70;;
22388;SDS011;11362;48.102;11.620;2023-06-14T01:33:59;3.67;;;2.80;;
22388;SDS011;11362;48.102;11.620;2023-06-14T01:36:25;3.17;;;2.97;;
22388;SDS011;11362;48.102;11.620;2023-06-14T01:38:52;3.10;;;2.90;;
22388;SDS011;11362;48.102;11.620;2023-06-14T01:41:18;3.20;;;3.00;;
22388;SDS011;11362;48.102;11.620;2023-06-14T01:43:45;4.50;;;3.00;;
22388;SDS011;11362;48.102;11.620;2023-06-14T01:46:12;3.90;;;3.50;;
22388;SDS011;11362;48.102;11.620;2023-06-14T01:48:39;4.53;;;3.13;;
22388;SDS011;11362;48.102;11.620;2023-06-14T01:51:05;3.47;;;3.13;;
22388;SDS011;11362;48.102;11.620;2023-06-14T01:53:30;5.00;;;2.80;;
22388;SDS011;11362;48.102;11.620;2023-06-14T01:55:56;2.90;;;2.70;;
22388;SDS011;11362;48.102;11.620;2023-06-14T01:58:21;3.30;;;3.00;;
22388;SDS011;11362;48.102;11.620;2023-06-14T02:00:46;4.30;;;2.93;;
22388;SDS011;11362;48.102;11.620;2023-06-14T02:03:11;3.40;;;3.10;;
22388;SDS011;11362;48.102;11.620;2023-06-14T02:05:37;3.43;;;3.13;;
22388;SDS011;11362;48.102;11.620;2023-06-14T02:08:02;3.43;;;3.23;;
22388;SDS011;11362;48.102;11.620;2023-06-14T02:10:28;3.33;;;3.03;;
22388;SDS011;11362;48.102;11.620;2023-06-14T02:12:53;3.00;;;2.80;;
22388;SDS011;11362;48.102;11.620;2023-06-14T02:15:18;2.90;;;2.73;;
22388;SDS011;11362;48.102;11.620;2023-06-14T02:17:44;4.80;;;3.57;;
22388;SDS011;11362;48.102;11.620;2023-06-14T02:20:09;3.00;;;2.80;;
22388;SDS011;11362;48.102;11.620;2023-06-14T02:22:35;3.33;;;3.13;;
22388;SDS011;11362;48.102;11.620;2023-06-14T02:25:00;3.03;;;2.83;;
22388;SDS011;11362;48.102;11.620;2023-06-14T02:27:26;3.03;;;2.77;;
22388;SDS011;11362;48.102;11.620;2023-06-14T02:29:51;3.37;;;3.07;;
22388;SDS011;11362;48.102;11.620;2023-06-14T02:32:16;3.50;;;3.20;;
22388;SDS011;11362;48.102;11.620;2023-06-14T02:34:42;2.67;;;2.47;;
22388;SDS011;11362;48.102;11.620;2023-06-14T02:37:07;3.53;;;3.00;;
22388;SDS011;11362;48.102;11.620;2023-06-14T02:39:32;3.27;;;3.00;;
22388;SDS011;11362;48.102;11.620;2023-06-14T02:41:57;2.37;;;2.17;;
22388;SDS011;11362;48.102;11.620;2023-06-14T02:44:26;3.10;;;2.83;;
22388;SDS011;11362;48.102;11.620;2023-06-14T02:46:52;3.17;;;2.97;;
22388;SDS011;11362;48.102;11.620;2023-06-14T02:49:18;2.90;;;2.67;;
22388;SDS011;11362;48.102;11.620;2023-06-14T02:51:43;2.83;;;2.63;;
22388;SDS011;11362;48.102;11.620;2023-06-14T02:54:08;3.27;;;3.00;;
22388;SDS011;11362;48.102;11.620;2023-06-14T02:56:34;2.83;;;2.63;;
22388;SDS011;11362;48.102;11.620;2023-06-14T02:58:59;3.10;;;2.90;;
22388;SDS011;11362;48.102;11.620;2023-06-14T03:01:25;4.33;;;3.03;;
22388;SDS011;11362;48.102;11.620;2023-06-14T03:03:52;3.10;;;2.83;;
22388;SDS011;11362;48.102;11.620;2023-06-14T03:06:18;4.07;;;3.33;;
22388;SDS011;11362;48.102;11.620;2023-06-14T03:08:43;3.33;;;2.97;;
22388;SDS011;11362;48.102;11.620;2023-06-14T03:11:08;3.07;;;2.87;;
22388;SDS011;11362;48.102;11.620;2023-06-14T03:13:34;3.50;;;2.70;;
22388;SDS011;11362;48.102;11.620;2023-06-14T03:16:00;5.20;;;2.77;;
22388;SDS011;11362;48.102;11.620;2023-06-14T03:18:25;3.17;;;2.97;;
22388;SDS011;11362;48.102;11.620;2023-06-14T03:20:51;2.87;;;2.67;;
22388;SDS011;11362;48.102;11.620;2023-06-14T03:23:16;2.57;;;2.47;;
22388;SDS011;11362;48.102;11.620;2023-06-14T03:25:41;2.80;;;2.60;;
22388;SDS011;11362;48.102;11.620;2023-06-14T03:28:07;2.70;;;2.60;;
22388;SDS011;11362;48.102;11.620;2023-06-14T03:30:33;7.90;;;2.33;;
22388;SDS011;11362;48.102;11.620;2023-06-14T03:32:58;3.57;;;2.97;;
22388;SDS011;11362;48.102;11.620;2023-06-14T03:35:23;4.33;;;2.73;;
22388;SDS011;11362;48.102;11.620;2023-06-14T03:37:49;4.57;;;2.93;;
22388;SDS011;11362;48.102;11.620;2023-06-14T03:40:15;3.00;;;2.80;;
22388;SDS011;11362;48.102;11.620;2023-06-14T03:42:41;3.10;;;2.90;;
22388;SDS011;11362;48.102;11.620;2023-06-14T03:45:06;3.57;;;2.83;;
22388;SDS011;11362;48.102;11.620;2023-06-14T03:47:32;2.93;;;2.57;;
22388;SDS011;11362;48.102;11.620;2023-06-14T03:49:58;5.50;;;2.70;;
22388;SDS011;11362;48.102;11.620;2023-06-14T03:52:24;4.87;;;2.77;;
22388;SDS011;11362;48.102;11.620;2023-06-14T03:54:49;4.23;;;3.03;;
22388;SDS011;11362;48.102;11.620;2023-06-14T03:57:15;4.43;;;2.40;;
22388;SDS011;11362;48.102;11.620;2023-06-14T03:59:40;4.77;;;2.93;;
22388;SDS011;11362;48.102;11.620;2023-06-14T04:02:05;3.00;;;2.60;;
22388;SDS011;11362;48.102;11.620;2023-06-14T04:04:31;4.63;;;2.87;;
22388;SDS011;11362;48.102;11.620;2023-06-14T04:06:56;4.83;;;2.43;;
22388;SDS011;11362;48.102;11.620;2023-06-14T04:09:23;4.63;;;2.43;;
22388;SDS011;11362;48.102;11.620;2023-06-14T04:11:48;3.60;;;2.53;;
22388;SDS011;11362;48.102;11.620;2023-06-14T04:14:14;3.43;;;2.57;;
22388;SDS011;11362;48.102;11.620;2023-06-14T04:16:39;3.27;;;3.00;;
22388;SDS011;11362;48.102;11.620;2023-06-14T04:19:04;3.03;;;2.80;;
22388;SDS011;11362;48.102;11.620;2023-06-14T04:21:30;2.70;;;2.50;;
22388;SDS011;11362;48.102;11.620;2023-06-14T04:23:55;4.17;;;2.67;;
22388;SDS011;11362;48.102;11.620;2023-06-14T04:26:21;4.47;;;3.00;;
22388;SDS011;11362;48.102;11.620;2023-06-14T04:28:47;2.60;;;2.40;;
22388;SDS011;11362;48.102;11.620;2023-06-14T04:31:12;3.33;;;2.53;;
22388;SDS011;11362;48.102;11.620;2023-06-14T04:33:37;3.30;;;2.70;;
22388;SDS011;11362;48.102;11.620;2023-06-14T04:36:03;4.37;;;2.53;;
22388;SDS011;11362;48.102;11.620;2023-06-14T04:38:28;4.17;;;2.80;;
22388;SDS011;11362;48.102;11.620;2023-06-14T04:40:54;6.10;;;2.67;;
22388;SDS011;11362;48.102;11.620;2023-06-14T04:43:19;3.17;;;2.67;;
22388;SDS011;11362;48.102;11.620;2023-06-14T04:45:44;3.60;;;2.40;;
22388;SDS011;11362;48.102;11.620;2023-06-14T04:48:09;5.57;;;2.40;;
22388;SDS011;11362;48.102;11.620;2023-06-14T04:50:35;2.70;;;2.50;;
22388;SDS011;11362;48.102;11.620;2023-06-14T04:53:00;3.73;;;2.70;;
22388;SDS011;11362;48.102;11.620;2023-06-14T04:55:25;6.10;;;2.87;;
22388;SDS011;11362;48.102;11.620;2023-06-14T04:57:51;3.80;;;2.50;;
22388;SDS011;11362;48.102;11.620;2023-06-14T05:00:16;2.53;;;2.37;;
22388;SDS011;11362;48.102;11.620;2023-06-14T05:02:41;3.00;;;2.80;;
22388;SDS011;11362;48.102;11.620;2023-06-14T05:05:07;2.97;;;2.43;;
22388;SDS011;11362;48.102;11.620;2023-06-14T05:07:32;6.30;;;2.77;;
22388;SDS011;11362;48.102;11.620;2023-06-14T05:09:57;11.50;;;3.07;;
22388;SDS011;11362;48.102;11.620;2023-06-14T05:12:23;5.27;;;3.03;;
22388;SDS011;11362;48.102;11.620;2023-06-14T05:14:48;7.10;;;2.77;;
22388;SDS011;11362;48.102;11.620;2023-06-14T05:17:13;6.80;;;2.77;;
22388;SDS011;11362;48.102;11.620;2023-06-14T05:19:39;8.40;;;2.90;;
22388;SDS011;11362;48.102;11.620;2023-06-14T05:22:04;11.80;;;3.30;;
22388;SDS011;11362;48.102;11.620;2023-06-14T05:24:29;8.27;;;2.77;;
22388;SDS011;11362;48.102;11.620;2023-06-14T05:26:54;8.27;;;3.33;;
22388;SDS011;11362;48.102;11.620;2023-06-14T05:29:20;14.57;;;3.20;;
22388;SDS011;11362;48.102;11.620;2023-06-14T05:31:45;10.40;;;3.30;;
22388;SDS011;11362;48.102;11.620;2023-06-14T05:34:10;7.70;;;2.67;;
22388;SDS011;11362;48.102;11.620;2023-06-14T05:36:36;8.87;;;3.33;;
22388;SDS011;11362;48.102;11.620;2023-06-14T05:39:01;7.60;;;3.03;;
22388;SDS011;11362;48.102;11.620;2023-06-14T05:41:26;9.07;;;3.27;;
22388;SDS011;11362;48.102;11.620;2023-06-14T05:43:53;10.33;;;3.37;;
22388;SDS011;11362;48.102;11.620;2023-06-14T05:46:19;8.07;;;3.10;;
22388;SDS011;11362;48.102;11.620;2023-06-14T05:48:45;13.37;;;2.90;;
22388;SDS011;11362;48.102;11.620;2023-06-14T05:51:10;13.00;;;3.70;;
22388;SDS011;11362;48.102;11.620;2023-06-14T05:53:35;11.50;;;2.80;;
22388;SDS011;11362;48.102;11.620;2023-06-14T05:56:01;6.63;;;3.10;;
22388;SDS011;11362;48.102;11.620;2023-06-14T05:58:26;9.40;;;3.23;;
22388;SDS011;11362;48.102;11.620;2023-06-14T06:00:51;7.20;;;3.17;;
22388;SDS011;11362;48.102;11.620;2023-06-14T06:03:16;7.67;;;3.73;;
22388;SDS011;11362;48.102;11.620;2023-06-14T06:05:42;11.27;;;3.43;;
22388;SDS011;11362;48.102;11.620;2023-06-14T06:08:07;14.30;;;4.07;;
22388;SDS011;11362;48.102;11.620;2023-06-14T06:10:32;13.37;;;3.93;;
22388;SDS011;11362;48.102;11.620;2023-06-14T06:12:58;12.83;;;3.30;;
22388;SDS011;11362;48.102;11.620;2023-06-14T06:15:23;14.47;;;3.10;;
22388;SDS011;11362;48.102;11.620;2023-06-14T06:17:48;13.13;;;4.13;;
22388;SDS011;11362;48.102;11.620;2023-06-14T06:20:14;10.07;;;4.00;;
22388;SDS011;11362;48.102;11.620;2023-06-14T06:22:39;12.63;;;4.03;;
22388;SDS011;11362;48.102;11.620;2023-06-14T06:25:05;10.37;;;3.57;;
22388;SDS011;11362;48.102;11.620;2023-06-14T06:27:30;7.60;;;3.57;;
22388;SDS011;11362;48.102;11.620;2023-06-14T06:29:56;6.63;;;3.17;;
22388;SDS011;11362;48.102;11.620;2023-06-14T06:32:21;8.47;;;2.73;;
22388;SDS011;11362;48.102;11.620;2023-06-14T06:34:47;6.97;;;3.10;;
22388;SDS011;11362;48.102;11.620;2023-06-14T06:37:12;12.07;;;2.80;;
22388;SDS011;11362;48.102;11.620;2023-06-14T06:39:38;7.47;;;2.70;;
22388;SDS011;11362;48.102;11.620;2023-06-14T06:42:03;8.60;;;3.87;;
22388;SDS011;11362;48.102;11.620;2023-06-14T06:44:29;6.00;;;3.00;;
22388;SDS011;11362;48.102;11.620;2023-06-14T06:46:54;6.83;;;2.90;;
22388;SDS011;11362;48.102;11.620;2023-06-14T06:49:20;6.03;;;3.43;;
22388;SDS011;11362;48.102;11.620;2023-06-14T06:51:57;6.73;;;3.37;;
22388;SDS011;11362;48.102;11.620;2023-06-14T06:54:24;7.53;;;2.77;;
22388;SDS011;11362;48.102;11.620;2023-06-14T06:56:50;6.90;;;3.07;;
22388;SDS011;11362;48.102;11.620;2023-06-14T06:59:15;10.37;;;3.40;;
22388;SDS011;11362;48.102;11.620;2023-06-14T07:01:41;7.77;;;3.37;;
22388;SDS011;11362;48.102;11.620;2023-06-14T07:04:06;6.90;;;3.10;;
22388;SDS011;11362;48.102;11.620;2023-06-14T07:06:31;6.90;;;3.17;;
22388;SDS011;11362;48.102;11.620;2023-06-14T07:08:56;8.33;;;3.23;;
22388;SDS011;11362;48.102;11.620;2023-06-14T07:11:22;9.10;;;3.17;;
22388;SDS011;11362;48.102;11.620;2023-06-14T07:13:47;7.67;;;3.20;;
22388;SDS011;11362;48.102;11.620;2023-06-14T07:16:12;4.83;;;2.40;;
22388;SDS011;11362;48.102;11.620;2023-06-14T07:18:38;6.67;;;2.90;;
22388;SDS011;11362;48.102;11.620;2023-06-14T07:21:03;5.40;;;2.57;;
22388;SDS011;11362;48.102;11.620;2023-06-14T07:23:30;5.30;;;2.73;;
22388;SDS011;11362;48.102;11.620;2023-06-14T07:25:55;9.10;;;3.10;;
22388;SDS011;11362;48.102;11.620;2023-06-14T07:28:20;5.63;;;2.70;;
22388;SDS011;11362;48.102;11.620;2023-06-14T07:30:46;5.03;;;3.00;;
22388;SDS011;11362;48.102;11.620;2023-06-14T07:33:11;6.80;;;2.87;;
22388;SDS011;11362;48.102;11.620;2023-06-14T07:35:36;6.67;;;2.53;;
22388;SDS011;11362;48.102;11.620;2023-06-14T07:38:01;4.37;;;3.30;;
22388;SDS011;11362;48.102;11.620;2023-06-14T07:40:27;7.03;;;2.40;;
22388;SDS011;11362;48.102;11.620;2023-06-14T07:42:52;5.47;;;2.43;;
22388;SDS011;11362;48.102;11.620;2023-06-14T07:45:17;4.70;;;2.33;;
22388;SDS011;11362;48.102;11.620;2023-06-14T07:47:43;2.93;;;2.13;;
22388;SDS011;11362;48.102;11.620;2023-06-14T07:50:08;7.10;;;3.03;;
22388;SDS011;11362;48.102;11.620;2023-06-14T07:52:34;3.53;;;1.77;;
22388;SDS011;11362;48.102;11.620;2023-06-14T07:54:59;2.83;;;2.40;;
22388;SDS011;11362;48.102;11.620;2023-06-14T07:57:24;2.93;;;2.07;;
22388;SDS011;11362;48.102;11.620;2023-06-14T07:59:50;6.60;;;2.70;;
22388;SDS011;11362;48.102;11.620;2023-06-14T08:02:15;3.40;;;2.40;;
22388;SDS011;11362;48.102;11.620;2023-06-14T08:04:40;3.60;;;2.20;;
22388;SDS011;11362;48.102;11.620;2023-06-14T08:07:06;2.67;;;2.10;;
22388;SDS011;11362;48.102;11.620;2023-06-14T08:09:31;5.20;;;2.30;;
22388;SDS011;11362;48.102;11.620;2023-06-14T08:11:56;3.33;;;2.33;;
22388;SDS011;11362;48.102;11.620;2023-06-14T08:14:22;3.23;;;2.20;;
22388;SDS011;11362;48.102;11.620;2023-06-14T08:16:47;3.03;;;2.40;;
22388;SDS011;11362;48.102;11.620;2023-06-14T08:19:12;3.10;;;2.10;;
22388;SDS011;11362;48.102;11.620;2023-06-14T08:21:38;2.93;;;2.10;;
22388;SDS011;11362;48.102;11.620;2023-06-14T08:24:03;4.23;;;2.03;;
22388;SDS011;11362;48.102;11.620;2023-06-14T08:26:28;3.80;;;2.37;;
22388;SDS011;11362;48.102;11.620;2023-06-14T08:28:55;2.67;;;2.47;;
22388;SDS011;11362;48.102;11.620;2023-06-14T08:31:21;2.97;;;2.03;;
22388;SDS011;11362;48.102;11.620;2023-06-14T08:33:46;1.90;;;1.80;;
22388;SDS011;11362;48.102;11.620;2023-06-14T08:36:12;4.17;;;2.20;;
22388;SDS011;11362;48.102;11.620;2023-06-14T08:38:37;4.37;;;2.30;;
22388;SDS011;11362;48.102;11.620;2023-06-14T08:41:03;2.50;;;2.30;;
22388;SDS011;11362;48.102;11.620;2023-06-14T08:43:30;2.67;;;2.47;;
22388;SDS011;11362;48.102;11.620;2023-06-14T08:45:57;2.53;;;2.33;;
22388;SDS011;11362;48.102;11.620;2023-06-14T08:48:26;2.20;;;2.00;;
22388;SDS011;11362;48.102;11.620;2023-06-14T08:50:51;3.73;;;2.03;;
22388;SDS011;11362;48.102;11.620;2023-06-14T08:53:20;3.13;;;1.90;;
22388;SDS011;11362;48.102;11.620;2023-06-14T08:55:46;2.33;;;2.10;;
22388;SDS011;11362;48.102;11.620;2023-06-14T08:58:12;2.07;;;1.90;;
22388;SDS011;11362;48.102;11.620;2023-06-14T09:00:37;3.37;;;2.30;;
22388;SDS011;11362;48.102;11.620;2023-06-14T09:03:03;2.30;;;2.10;;
22388;SDS011;11362;48.102;11.620;2023-06-14T09:05:28;2.00;;;1.80;;
22388;SDS011;11362;48.102;11.620;2023-06-14T09:07:54;2.77;;;2.17;;
22388;SDS011;11362;48.102;11.620;2023-06-14T09:10:20;2.03;;;1.93;;
22388;SDS011;11362;48.102;11.620;2023-06-14T09:12:46;1.90;;;1.80;;
22388;SDS011;11362;48.102;11.620;2023-06-14T09:15:11;2.33;;;2.23;;
22388;SDS011;11362;48.102;11.620;2023-06-14T09:17:36;1.90;;;1.80;;
22388;SDS011;11362;48.102;11.620;2023-06-14T09:20:03;2.27;;;2.00;;
22388;SDS011;11362;48.102;11.620;2023-06-14T09:22:30;1.83;;;1.73;;
22388;SDS011;11362;48.102;11.620;2023-06-14T09:24:55;2.00;;;1.90;;
22388;SDS011;11362;48.102;11.620;2023-06-14T09:27:21;1.47;;;1.43;;
22388;SDS011;11362;48.102;11.620;2023-06-14T09:29:46;2.40;;;2.10;;
22388;SDS011;11362;48.102;11.620;2023-06-14T09:32:11;2.20;;;2.00;;
22388;SDS011;11362;48.102;11.620;2023-06-14T09:34:37;1.83;;;1.73;;
22388;SDS011;11362;48.102;11.620;2023-06-14T09:37:02;1.80;;;1.70;;
22388;SDS011;11362;48.102;11.620;2023-06-14T09:39:28;1.80;;;1.70;;
22388;SDS011;11362;48.102;11.620;2023-06-14T09:41:53;2.07;;;1.87;;
22388;SDS011;11362;48.102;11.620;2023-06-14T09:44:18;1.87;;;1.77;;
22388;SDS011;11362;48.102;11.620;2023-06-14T09:46:44;1.33;;;1.33;;
22388;SDS011;11362;48.102;11.620;2023-06-14T09:49:10;3.30;;;2.07;;
22388;SDS011;11362;48.102;11.620;2023-06-14T09:51:36;2.00;;;1.80;;
22388;SDS011;11362;48.102;11.620;2023-06-14T09:54:12;1.97;;;1.87;;
22388;SDS011;11362;48.102;11.620;2023-06-14T09:56:41;3.73;;;2.13;;
22388;SDS011;11362;48.102;11.620;2023-06-14T09:59:09;4.77;;;2.00;;
22388;SDS011;11362;48.102;11.620;2023-06-14T10:01:35;3.87;;;2.37;;
22388;SDS011;11362;48.102;11.620;2023-06-14T10:04:06;6.50;;;2.30;;
22388;SDS011;11362;48.102;11.620;2023-06-14T10:06:34;2.10;;;2.00;;
22388;SDS011;11362;48.102;11.620;2023-06-14T10:09:02;2.07;;;1.97;;
22388;SDS011;11362;48.102;11.620;2023-06-14T10:11:29;2.00;;;1.80;;
22388;SDS011;11362;48.102;11.620;2023-06-14T10:13:54;4.37;;;2.47;;
22388;SDS011;11362;48.102;11.620;2023-06-14T10:22:04;3.13;;;1.83;;
22388;SDS011;11362;48.102;11.620;2023-06-14T10:27:03;3.00;;;1.80;;
22388;SDS011;11362;48.102;11.620;2023-06-14T10:29:31;2.60;;;2.27;;
22388;SDS011;11362;48.102;11.620;2023-06-14T10:31:57;2.20;;;2.00;;
22388;SDS011;11362;48.102;11.620;2023-06-14T10:34:24;2.10;;;1.97;;
22388;SDS011;11362;48.102;11.620;2023-06-14T10:37:03;2.20;;;1.90;;
22388;SDS011;11362;48.102;11.620;2023-06-14T10:39:39;3.53;;;2.03;;
22388;SDS011;11362;48.102;11.620;2023-06-14T10:42:06;3.73;;;1.97;;
22388;SDS011;11362;48.102;11.620;2023-06-14T10:44:33;3.97;;;1.63;;
22388;SDS011;11362;48.102;11.620;2023-06-14T10:46:58;3.07;;;1.93;;
22388;SDS011;11362;48.102;11.620;2023-06-14T10:49:36;3.60;;;2.10;;
22388;SDS011;11362;48.102;11.620;2023-06-14T10:52:02;2.70;;;1.80;;
22388;SDS011;11362;48.102;11.620;2023-06-14T10:54:28;1.80;;;1.70;;
22388;SDS011;11362;48.102;11.620;2023-06-14T10:56:53;2.47;;;1.80;;
22388;SDS011;11362;48.102;11.620;2023-06-14T10:59:19;2.00;;;1.70;;
22388;SDS011;11362;48.102;11.620;2023-06-14T11:04:47;2.40;;;1.87;;
22388;SDS011;11362;48.102;11.620;2023-06-14T11:12:35;2.00;;;1.90;;
22388;SDS011;11362;48.102;11.620;2023-06-14T11:15:01;2.13;;;1.93;;
22388;SDS011;11362;48.102;11.620;2023-06-14T11:17:27;1.67;;;1.57;;
22388;SDS011;11362;48.102;11.620;2023-06-14T11:20:07;4.37;;;1.83;;
22388;SDS011;11362;48.102;11.620;2023-06-14T11:22:38;3.73;;;2.07;;
22388;SDS011;11362;48.102;11.620;2023-06-14T11:25:08;1.70;;;1.50;;
22388;SDS011;11362;48.102;11.620;2023-06-14T11:27:34;3.33;;;1.80;;
22388;SDS011;11362;48.102;11.620;2023-06-14T11:29:59;2.00;;;1.83;;
22388;SDS011;11362;48.102;11.620;2023-06-14T11:32:25;1.83;;;1.73;;
22388;SDS011;11362;48.102;11.620;2023-06-14T11:34:50;3.43;;;1.87;;
22388;SDS011;11362;48.102;11.620;2023-06-14T11:37:15;1.93;;;1.77;;
22388;SDS011;11362;48.102;11.620;2023-06-14T11:39:44;1.80;;;1.70;;
22388;SDS011;11362;48.102;11.620;2023-06-14T11:42:13;1.90;;;1.80;;
22388;SDS011;11362;48.102;11.620;2023-06-14T11:44:40;2.10;;;1.90;;
22388;SDS011;11362;48.102;11.620;2023-06-14T11:47:05;1.70;;;1.60;;
22388;SDS011;11362;48.102;11.620;2023-06-14T11:49:34;2.33;;;2.07;;
22388;SDS011;11362;48.102;11.620;2023-06-14T11:52:00;2.50;;;1.80;;
22388;SDS011;11362;48.102;11.620;2023-06-14T11:54:26;2.20;;;2.07;;
22388;SDS011;11362;48.102;11.620;2023-06-14T11:56:51;4.03;;;1.97;;
22388;SDS011;11362;48.102;11.620;2023-06-14T11:59:17;1.73;;;1.63;;
22388;SDS011;11362;48.102;11.620;2023-06-14T12:01:43;1.80;;;1.70;;
22388;SDS011;11362;48.102;11.620;2023-06-14T12:04:08;1.60;;;1.43;;
22388;SDS011;11362;48.102;11.620;2023-06-14T12:06:34;2.00;;;1.80;;
22388;SDS011;11362;48.102;11.620;2023-06-14T12:08:59;1.60;;;1.50;;
22388;SDS011;11362;48.102;11.620;2023-06-14T12:11:28;1.90;;;1.80;;
22388;SDS011;11362;48.102;11.620;2023-06-14T12:13:56;2.73;;;2.00;;
22388;SDS011;11362;48.102;11.620;2023-06-14T12:16:22;1.87;;;1.70;;
22388;SDS011;11362;48.102;11.620;2023-06-14T12:18:55;2.30;;;1.90;;
22388;SDS011;11362;48.102;11.620;2023-06-14T12:21:22;2.23;;;2.03;;
22388;SDS011;11362;48.102;11.620;2023-06-14T12:23:48;1.73;;;1.70;;
22388;SDS011;11362;48.102;11.620;2023-06-14T12:26:18;2.37;;;2.10;;
22388;SDS011;11362;48.102;11.620;2023-06-14T12:28:44;2.33;;;1.80;;
22388;SDS011;11362;48.102;11.620;2023-06-14T12:31:11;1.33;;;1.23;;
22388;SDS011;11362;48.102;11.620;2023-06-14T12:33:37;4.00;;;2.00;;
22388;SDS011;11362;48.102;11.620;2023-06-14T12:36:06;1.93;;;1.70;;
22388;SDS011;11362;48.102;11.620;2023-06-14T12:38:32;2.80;;;1.80;;
22388;SDS011;11362;48.102;11.620;2023-06-14T12:40:58;3.57;;;2.67;;
22388;SDS011;11362;48.102;11.620;2023-06-14T12:43:23;2.83;;;2.50;;
22388;SDS011;11362;48.102;11.620;2023-06-14T12:45:49;2.93;;;2.20;;
22388;SDS011;11362;48.102;11.620;2023-06-14T12:48:14;2.30;;;2.00;;
22388;SDS011;11362;48.102;11.620;2023-06-14T12:50:39;3.03;;;2.03;;
22388;SDS011;11362;48.102;11.620;2023-06-14T12:53:05;5.43;;;2.10;;
22388;SDS011;11362;48.102;11.620;2023-06-14T12:55:30;2.17;;;1.93;;
22388;SDS011;11362;48.102;11.620;2023-06-14T12:57:57;2.27;;;2.07;;
22388;SDS011;11362;48.102;11.620;2023-06-14T13:00:22;3.33;;;2.10;;
22388;SDS011;11362;48.102;11.620;2023-06-14T13:02:47;2.73;;;1.97;;
22388;SDS011;11362;48.102;11.620;2023-06-14T13:05:12;2.77;;;1.90;;
22388;SDS011;11362;48.102;11.620;2023-06-14T13:07:38;2.80;;;2.10;;
22388;SDS011;11362;48.102;11.620;2023-06-14T13:10:03;2.13;;;2.03;;
22388;SDS011;11362;48.102;11.620;2023-06-14T13:12:29;2.33;;;2.17;;
22388;SDS011;11362;48.102;11.620;2023-06-14T13:14:54;2.13;;;2.03;;
22388;SDS011;11362;48.102;11.620;2023-06-14T13:17:19;1.93;;;1.83;;
22388;SDS011;11362;48.102;11.620;2023-06-14T13:19:45;2.73;;;2.03;;
22388;SDS011;11362;48.102;11.620;2023-06-14T13:22:10;2.17;;;2.03;;
22388;SDS011;11362;48.102;11.620;2023-06-14T13:24:36;3.43;;;2.30;;
22388;SDS011;11362;48.102;11.620;2023-06-14T13:27:02;2.33;;;2.10;;
22388;SDS011;11362;48.102;11.620;2023-06-14T13:29:27;3.07;;;2.20;;
22388;SDS011;11362;48.102;11.620;2023-06-14T13:31:53;4.63;;;2.13;;
22388;SDS011;11362;48.102;11.620;2023-06-14T13:34:19;2.00;;;1.90;;
22388;SDS011;11362;48.102;11.620;2023-06-14T13:36:44;2.30;;;2.20;;
22388;SDS011;11362;48.102;11.620;2023-06-14T13:39:10;2.60;;;2.00;;
22388;SDS011;11362;48.102;11.620;2023-06-14T13:41:35;2.00;;;1.90;;
22388;SDS011;11362;48.102;11.620;2023-06-14T13:44:00;1.87;;;1.77;;
22388;SDS011;11362;48.102;11.620;2023-06-14T13:46:26;1.97;;;1.87;;
22388;SDS011;11362;48.102;11.620;2023-06-14T13:48:51;2.03;;;1.77;;
22388;SDS011;11362;48.102;11.620;2023-06-14T13:51:17;2.00;;;1.90;;
22388;SDS011;11362;48.102;11.620;2023-06-14T13:53:45;2.70;;;2.10;;
22388;SDS011;11362;48.102;11.620;2023-06-14T13:56:11;1.77;;;1.67;;
22388;SDS011;11362;48.102;11.620;2023-06-14T13:58:37;2.33;;;2.20;;
22388;SDS011;11362;48.102;11.620;2023-06-14T14:01:03;2.20;;;2.00;;
22388;SDS011;11362;48.102;11.620;2023-06-14T14:03:28;1.90;;;1.80;;
22388;SDS011;11362;48.102;11.620;2023-06-14T14:05:53;2.37;;;2.17;;
22388;SDS011;11362;48.102;11.620;2023-06-14T14:08:18;2.10;;;1.80;;
22388;SDS011;11362;48.102;11.620;2023-06-14T14:10:44;2.10;;;2.00;;
22388;SDS011;11362;48.102;11.620;2023-06-14T14:13:09;1.77;;;1.67;;
22388;SDS011;11362;48.102;11.620;2023-06-14T14:15:34;2.03;;;1.93;;
22388;SDS011;11362;48.102;11.620;2023-06-14T14:18:00;2.00;;;1.90;;
22388;SDS011;11362;48.102;11.620;2023-06-14T14:20:25;2.00;;;1.87;;
22388;SDS011;11362;48.102;11.620;2023-06-14T14:22:51;2.73;;;2.23;;
22388;SDS011;11362;48.102;11.620;2023-06-14T14:25:16;16.73;;;6.27;;
22388;SDS011;11362;48.102;11.620;2023-06-14T14:27:41;14.47;;;5.37;;
22388;SDS011;11362;48.102;11.620;2023-06-14T14:30:07;9.47;;;3.90;;
22388;SDS011;11362;48.102;11.620;2023-06-14T14:32:32;21.20;;;5.43;;
22388;SDS011;11362;48.102;11.620;2023-06-14T14:34:58;11.50;;;4.37;;
22388;SDS011;11362;48.102;11.620;2023-06-14T14:37:23;17.70;;;5.30;;
22388;SDS011;11362;48.102;11.620;2023-06-14T14:39:48;13.07;;;5.00;;
22388;SDS011;11362;48.102;11.620;2023-06-14T14:42:14;11.97;;;4.33;;
22388;SDS011;11362;48.102;11.620;2023-06-14T14:44:39;9.63;;;4.00;;